NSFA

Details ICAO NSFA (APW)
Name Faleolo International
Region American Samoa
Timezone Pacific/Apia (UTC+13.0)
Plans Departing 116
Arriving 133
Stats Elevation 58 ft / 18 m (AMSL)
Location -13.830000° -172.008000°
Runways 1
Magnetic Variation 11.711° E
Sunrise 2019-04-24 17:36:42 UTC / 2019-04-25 06:36:42 Local
Sunset 2019-04-25 05:17:52 UTC / 2019-04-25 18:17:52 Local
Advertisement - Login to hide

Runways

ID Width Length Bearing (true/mag) Surface Threshold Overrun Markings Lighting
08 148 ft / 45 m 9,829 ft / 2,996 m 89.34° / 77.63° ASPHALT 0 ft / 0 m 502 ft / 153 m APP EDGE THRESHOLD REIL-OMNI
26 148 ft / 45 m 9,829 ft / 2,996 m 269.33° / 257.62° ASPHALT 0 ft / 0 m 0 ft / 0 m APP EDGE THRESHOLD REIL-OMNI

Approach Navaids

Runway Type Ident Frequency Range Bearing (true/mag) Slope Elevation
08 DME IAP 109.90 MHz 18 nm / 33 km - - 58 ft / 18 m (AMSL)
08 LOC-ILS IAP 109.90 MHz 18 nm / 33 km 89.50° / 77.79° - 9 ft / 3 m (AMSL)
08 GS IAP 109.90 MHz 10 nm / 19 km 89.60° / 77.89° 3.00° 58 ft / 18 m (AMSL)

Map

Weather


0- 5 10 15 20 25 30 35+ Temperature / °C

Clouds and Precipitation
Forecast for 2019-04-25 06:00 UTC. Updated 3 hours ago

Ground ~20,000 ft ~40,000 ft Winds

METAR

Not found

TAF

TAF NSFA 250527Z 2506/2606 03005KT 9999 SCT022 PROB40 TEMPO 2602/2606 3000 TSRA BKN015 FEW018CB

Frequencies

Tower 118.10 MHz
Warning: Do not use this data for real-world aviation or navigation. No guarantee of current accuracy is given.